createdAt,value
2022-08-28T00:02:03.519Z,3.17
2022-08-28T00:04:30.946Z,2.97
2022-08-28T00:06:58.668Z,3.38
2022-08-28T00:09:26.568Z,3.00
2022-08-28T00:11:56.934Z,2.97
2022-08-28T00:14:25.876Z,2.95
2022-08-28T00:16:53.248Z,3.10
2022-08-28T00:19:22.944Z,3.00
2022-08-28T00:21:51.161Z,2.92
2022-08-28T00:24:18.692Z,3.10
2022-08-28T00:27:04.868Z,2.95
2022-08-28T00:29:32.930Z,2.85
2022-08-28T00:32:01.114Z,3.00
2022-08-28T00:34:33.356Z,2.60
2022-08-28T00:37:01.795Z,3.17
2022-08-28T00:39:29.563Z,2.85
2022-08-28T00:41:58.004Z,2.60
2022-08-28T00:44:28.876Z,2.30
2022-08-28T00:46:59.445Z,2.92
2022-08-28T00:49:34.133Z,2.80
2022-08-28T00:52:12.661Z,2.90
2022-08-28T00:54:58.426Z,2.40
2022-08-28T00:57:38.959Z,2.42
2022-08-28T01:00:13.276Z,2.47
2022-08-28T01:02:42.121Z,2.28
2022-08-28T01:05:10.187Z,2.17
2022-08-28T01:07:38.607Z,2.58
2022-08-28T01:10:10.398Z,2.25
2022-08-28T01:12:38.297Z,2.42
2022-08-28T01:15:13.968Z,2.30
2022-08-28T01:17:47.830Z,2.25
2022-08-28T01:20:19.456Z,2.40
2022-08-28T01:23:05.314Z,2.70
2022-08-28T01:25:35.401Z,2.15
2022-08-28T01:28:05.954Z,2.35
2022-08-28T01:30:34.207Z,2.42
2022-08-28T01:33:01.664Z,2.15
2022-08-28T01:35:34.615Z,1.98
2022-08-28T01:38:02.241Z,2.50
2022-08-28T01:40:35.215Z,2.25
2022-08-28T01:43:19.811Z,2.05
2022-08-28T01:45:53.052Z,2.30
2022-08-28T01:48:22.399Z,1.93
2022-08-28T01:50:50.917Z,1.98
2022-08-28T01:53:20.709Z,1.80
2022-08-28T01:55:53.635Z,2.08
2022-08-28T01:58:23.082Z,2.00
2022-08-28T02:00:53.783Z,2.15
2022-08-28T02:03:23.818Z,1.98
2022-08-28T02:05:51.388Z,1.92
2022-08-28T02:08:18.579Z,1.85
2022-08-28T02:10:46.415Z,2.10
2022-08-28T02:13:14.249Z,1.77
2022-08-28T02:15:43.201Z,1.90
2022-08-28T02:18:11.054Z,2.00
2022-08-28T02:20:38.985Z,2.05
2022-08-28T02:23:06.885Z,2.30
2022-08-28T02:25:35.526Z,1.80
2022-08-28T02:28:02.891Z,1.90
2022-08-28T02:30:32.046Z,1.60
2022-08-28T02:32:59.476Z,1.52
2022-08-28T02:35:26.858Z,1.73
2022-08-28T02:37:55.416Z,1.80
2022-08-28T02:40:24.071Z,2.10
2022-08-28T02:42:52.351Z,1.65
2022-08-28T02:45:20.327Z,1.80
2022-08-28T02:47:51.782Z,1.80
2022-08-28T02:50:22.699Z,1.65
2022-08-28T02:52:51.955Z,1.70
2022-08-28T02:55:21.437Z,1.80
2022-08-28T02:57:48.949Z,1.73
2022-08-28T03:00:20.387Z,1.70
2022-08-28T03:02:49.796Z,1.70
2022-08-28T03:05:21.211Z,1.42
2022-08-28T03:07:49.186Z,1.70
2022-08-28T03:10:17.406Z,1.83
2022-08-28T03:12:44.638Z,1.42
2022-08-28T03:15:12.562Z,1.55
2022-08-28T03:17:40.272Z,1.80
2022-08-28T03:20:11.366Z,1.67
2022-08-28T03:22:59.066Z,1.45
2022-08-28T03:25:27.301Z,1.60
2022-08-28T03:27:55.205Z,1.63
2022-08-28T03:30:23.887Z,1.70
2022-08-28T03:32:51.670Z,1.75
2022-08-28T03:35:19.139Z,1.65
2022-08-28T03:37:46.750Z,1.85
2022-08-28T03:40:14.955Z,1.50
2022-08-28T03:42:42.283Z,1.70
2022-08-28T03:45:18.996Z,1.60
2022-08-28T03:47:46.830Z,1.70
2022-08-28T03:50:14.408Z,1.55
2022-08-28T03:52:41.891Z,1.55
2022-08-28T03:55:12.251Z,1.50
2022-08-28T03:57:39.972Z,1.70
2022-08-28T04:00:11.189Z,1.60
2022-08-28T04:02:42.677Z,1.35
2022-08-28T04:05:11.290Z,1.60
2022-08-28T04:07:39.565Z,1.45
2022-08-28T04:10:07.528Z,1.45
2022-08-28T04:12:36.189Z,1.60
2022-08-28T04:15:07.166Z,1.70
2022-08-28T04:17:37.068Z,1.80
2022-08-28T04:20:05.056Z,1.48
2022-08-28T04:22:33.210Z,1.50
2022-08-28T04:25:01.325Z,1.50
2022-08-28T04:27:28.716Z,1.60
2022-08-28T04:29:56.096Z,1.48
2022-08-28T04:32:23.494Z,1.50
2022-08-28T04:34:51.579Z,1.67
2022-08-28T04:37:19.063Z,1.50
2022-08-28T04:39:46.296Z,1.30
2022-08-28T04:42:14.984Z,1.63
2022-08-28T04:44:42.460Z,1.50
2022-08-28T04:47:09.684Z,1.60
2022-08-28T04:49:37.295Z,1.50
2022-08-28T04:52:05.119Z,1.70
2022-08-28T04:54:35.979Z,1.70
2022-08-28T04:57:06.429Z,1.58
2022-08-28T04:59:33.815Z,1.88
2022-08-28T05:02:01.691Z,1.55
2022-08-28T05:04:29.107Z,1.45
2022-08-28T05:06:56.242Z,1.80
2022-08-28T05:09:23.461Z,1.60
2022-08-28T05:11:51.572Z,1.38
2022-08-28T05:14:20.354Z,1.60
2022-08-28T05:16:57.889Z,1.85
2022-08-28T05:19:28.069Z,1.60
2022-08-28T05:21:55.627Z,1.70
2022-08-28T05:24:22.879Z,1.60
2022-08-28T05:26:50.352Z,1.70
2022-08-28T05:29:18.113Z,2.42
2022-08-28T05:31:46.420Z,2.03
2022-08-28T05:34:15.301Z,1.60
2022-08-28T05:36:42.976Z,1.67
2022-08-28T05:39:13.905Z,1.65
2022-08-28T05:41:44.178Z,1.60
2022-08-28T05:44:15.656Z,1.90
2022-08-28T05:46:47.786Z,1.58
2022-08-28T05:49:17.964Z,1.90
2022-08-28T05:51:46.410Z,1.63
2022-08-28T05:54:15.056Z,1.60
2022-08-28T05:56:44.317Z,1.48
2022-08-28T05:59:13.364Z,1.70
2022-08-28T06:01:50.964Z,1.70
2022-08-28T06:04:27.569Z,1.50
2022-08-28T06:06:55.698Z,1.77
2022-08-28T06:09:29.592Z,1.67
2022-08-28T06:11:59.839Z,1.42
2022-08-28T06:14:27.780Z,1.98
2022-08-28T06:16:56.639Z,1.60
2022-08-28T06:19:26.870Z,1.85
2022-08-28T06:22:01.089Z,2.13
2022-08-28T06:24:34.692Z,1.83
2022-08-28T06:27:02.158Z,1.90
2022-08-28T06:29:29.922Z,2.17
2022-08-28T06:32:01.137Z,1.55
2022-08-28T06:34:29.769Z,1.67
2022-08-28T06:36:56.979Z,1.90
2022-08-28T06:39:24.624Z,2.00
2022-08-28T06:41:51.970Z,1.95
2022-08-28T06:44:21.705Z,1.77
2022-08-28T06:46:52.198Z,1.92
2022-08-28T06:49:19.491Z,2.10
2022-08-28T06:51:46.900Z,2.20
2022-08-28T06:54:19.772Z,1.70
2022-08-28T06:56:49.899Z,2.08
2022-08-28T06:59:17.276Z,1.90
2022-08-28T07:01:44.559Z,1.90
2022-08-28T07:04:14.859Z,2.00
2022-08-28T07:06:47.067Z,2.45
2022-08-28T07:09:14.830Z,2.35
2022-08-28T07:11:46.821Z,1.85
2022-08-28T07:14:14.110Z,2.40
2022-08-28T07:16:42.263Z,2.00
2022-08-28T07:19:12.186Z,2.33
2022-08-28T07:21:42.238Z,2.75
2022-08-28T07:24:12.632Z,2.40
2022-08-28T07:26:41.229Z,1.90
2022-08-28T07:29:10.835Z,2.30
2022-08-28T07:31:50.848Z,2.13
2022-08-28T07:34:19.965Z,2.65
2022-08-28T07:36:48.330Z,2.30
2022-08-28T07:39:16.261Z,2.35
2022-08-28T07:41:47.258Z,2.80
2022-08-28T07:44:33.866Z,3.15
2022-08-28T07:47:04.442Z,3.05
2022-08-28T07:49:34.175Z,2.80
2022-08-28T07:52:02.018Z,3.05
2022-08-28T07:54:29.378Z,2.75
2022-08-28T07:56:56.777Z,2.80
2022-08-28T07:59:24.467Z,2.80
2022-08-28T08:01:52.383Z,2.90
2022-08-28T08:04:21.869Z,3.05
2022-08-28T08:06:54.380Z,2.60
2022-08-28T08:09:24.498Z,2.80
2022-08-28T08:11:51.953Z,3.20
2022-08-28T08:14:19.241Z,2.53
2022-08-28T08:16:48.139Z,3.45
2022-08-28T08:19:16.816Z,2.75
2022-08-28T08:21:46.665Z,2.65
2022-08-28T08:24:21.582Z,2.83
2022-08-28T08:26:58.889Z,2.58
2022-08-28T08:29:30.033Z,2.58
2022-08-28T08:31:58.972Z,2.58
2022-08-28T08:34:26.417Z,3.10
2022-08-28T08:36:54.405Z,2.50
2022-08-28T08:39:21.603Z,3.25
2022-08-28T08:41:53.388Z,2.50
2022-08-28T08:44:34.022Z,4.00
2022-08-28T08:47:20.036Z,3.05
2022-08-28T08:49:58.773Z,3.00
2022-08-28T08:52:51.386Z,2.88
2022-08-28T08:55:31.605Z,3.58
2022-08-28T08:58:08.195Z,3.00
2022-08-28T09:00:52.502Z,2.80
2022-08-28T09:03:44.307Z,3.17
2022-08-28T09:06:26.004Z,3.80
2022-08-28T09:08:59.343Z,3.05
2022-08-28T09:12:08.366Z,3.22
2022-08-28T09:14:54.009Z,3.42
2022-08-28T09:17:27.787Z,3.92
2022-08-28T09:19:55.313Z,3.33
2022-08-28T09:22:22.974Z,2.83
2022-08-28T09:24:50.455Z,3.08
2022-08-28T09:27:26.951Z,3.45
2022-08-28T09:30:07.220Z,3.28
2022-08-28T09:32:56.535Z,3.20
2022-08-28T09:35:29.934Z,3.40
2022-08-28T09:38:18.406Z,3.65
2022-08-28T09:41:04.529Z,3.15
2022-08-28T09:43:33.780Z,3.40
2022-08-28T09:46:08.335Z,3.47
2022-08-28T09:48:47.136Z,3.50
2022-08-28T09:51:29.776Z,3.65
2022-08-28T09:54:02.932Z,3.42
2022-08-28T09:56:40.276Z,3.33
2022-08-28T09:59:33.930Z,3.58
2022-08-28T10:02:43.034Z,3.37
2022-08-28T10:05:18.785Z,3.30
2022-08-28T10:08:04.727Z,2.80
2022-08-28T10:10:37.336Z,4.65
2022-08-28T10:13:18.194Z,3.85
2022-08-28T10:16:04.150Z,3.45
2022-08-28T10:18:44.567Z,3.35
2022-08-28T10:21:24.404Z,3.92
2022-08-28T10:24:26.469Z,3.75
2022-08-28T10:27:12.176Z,3.20
2022-08-28T10:30:08.892Z,3.58
2022-08-28T10:32:56.863Z,3.70
2022-08-28T10:35:40.297Z,3.92
2022-08-28T10:38:18.197Z,3.67
2022-08-28T10:41:05.064Z,4.18
2022-08-28T10:43:38.420Z,3.30
2022-08-28T10:46:13.714Z,3.70
2022-08-28T10:48:46.610Z,3.90
2022-08-28T10:51:34.829Z,3.47
2022-08-28T10:54:19.408Z,4.70
2022-08-28T10:56:56.648Z,3.92
2022-08-28T10:59:28.249Z,3.92
2022-08-28T11:01:56.905Z,4.00
2022-08-28T11:04:25.856Z,3.67
2022-08-28T11:07:03.825Z,4.45
2022-08-28T11:09:35.549Z,4.00
2022-08-28T11:12:10.313Z,4.03
2022-08-28T11:14:48.412Z,4.43
2022-08-28T11:17:23.011Z,3.28
2022-08-28T11:20:22.916Z,3.60
2022-08-28T11:22:58.088Z,4.35
2022-08-28T11:25:59.907Z,4.25
2022-08-28T11:28:36.726Z,3.78
2022-08-28T11:31:06.957Z,4.00
2022-08-28T11:33:44.907Z,4.22
2022-08-28T11:36:32.861Z,3.97
2022-08-28T11:39:21.000Z,3.67
2022-08-28T11:42:14.028Z,3.78
2022-08-28T11:44:46.115Z,3.50
2022-08-28T11:47:32.097Z,4.03
2022-08-28T11:50:33.748Z,3.58
2022-08-28T11:53:18.760Z,3.83
2022-08-28T11:56:07.368Z,3.30
2022-08-28T11:58:54.702Z,4.22
2022-08-28T12:01:32.314Z,3.38
2022-08-28T12:04:08.096Z,4.25
2022-08-28T12:06:44.793Z,4.18
2022-08-28T12:09:31.726Z,4.25
2022-08-28T12:12:05.232Z,3.97
2022-08-28T12:17:06.120Z,4.07
2022-08-28T12:19:52.553Z,4.32
2022-08-28T12:22:39.739Z,3.70
2022-08-28T12:25:18.694Z,3.58
2022-08-28T12:27:46.182Z,4.57
2022-08-28T12:30:28.609Z,3.72
2022-08-28T12:33:03.143Z,3.97
2022-08-28T12:35:30.601Z,3.40
2022-08-28T12:38:02.236Z,4.22
2022-08-28T12:40:41.848Z,4.00
2022-08-28T12:43:15.238Z,3.83
2022-08-28T12:48:18.766Z,3.92
2022-08-28T12:50:46.247Z,3.90
2022-08-28T12:53:16.847Z,3.92
2022-08-28T12:55:46.505Z,4.10
2022-08-28T12:58:28.099Z,4.68
2022-08-28T13:01:06.877Z,4.65
2022-08-28T13:03:34.305Z,3.97
2022-08-28T13:06:07.786Z,4.20
2022-08-28T13:08:36.989Z,3.83
2022-08-28T13:11:05.056Z,3.72
2022-08-28T13:13:45.584Z,4.50
2022-08-28T13:16:35.770Z,4.38
2022-08-28T13:19:06.754Z,4.32
2022-08-28T13:21:35.207Z,4.35
2022-08-28T13:24:23.039Z,4.05
2022-08-28T13:27:15.894Z,3.90
2022-08-28T13:30:04.330Z,3.95
2022-08-28T13:32:34.481Z,3.65
2022-08-28T13:35:21.921Z,3.95
2022-08-28T13:37:50.762Z,4.45
2022-08-28T13:43:16.656Z,4.57
2022-08-28T13:45:46.434Z,4.22
2022-08-28T13:48:17.029Z,3.88
2022-08-28T13:50:49.995Z,3.78
2022-08-28T13:53:20.452Z,3.95
2022-08-28T13:55:51.344Z,4.00
2022-08-28T13:58:18.820Z,4.45
2022-08-28T14:00:48.628Z,4.32
2022-08-28T14:03:35.354Z,3.60
2022-08-28T14:06:14.315Z,4.03
2022-08-28T14:08:44.297Z,3.72
2022-08-28T14:11:14.247Z,4.05
2022-08-28T14:13:47.331Z,4.32
2022-08-28T14:16:25.844Z,3.67
2022-08-28T14:18:53.532Z,4.65
2022-08-28T14:21:22.568Z,4.22
2022-08-28T14:23:50.329Z,4.32
2022-08-28T14:26:17.596Z,3.95
2022-08-28T14:28:45.452Z,3.72
2022-08-28T14:31:14.748Z,4.47
2022-08-28T14:33:45.384Z,3.97
2022-08-28T14:36:24.060Z,4.00
2022-08-28T14:38:54.291Z,4.50
2022-08-28T14:41:23.840Z,3.75
2022-08-28T14:43:51.253Z,3.88
2022-08-28T14:46:24.407Z,4.00
2022-08-28T14:48:52.751Z,4.28
2022-08-28T14:51:19.902Z,4.40
2022-08-28T14:53:47.168Z,4.30
2022-08-28T14:56:14.724Z,4.82
2022-08-28T14:58:41.995Z,5.38
2022-08-28T15:01:09.443Z,4.68
2022-08-28T15:03:37.934Z,4.72
2022-08-28T15:06:08.706Z,4.65
2022-08-28T15:08:37.411Z,4.72
2022-08-28T15:11:10.332Z,4.57
2022-08-28T15:13:38.292Z,5.13
2022-08-28T15:16:15.744Z,4.93
2022-08-28T15:18:45.769Z,4.50
2022-08-28T15:21:28.190Z,4.25
2022-08-28T15:24:00.016Z,4.63
2022-08-28T15:26:28.108Z,4.60
2022-08-28T15:29:02.473Z,4.63
2022-08-28T15:31:31.710Z,4.47
2022-08-28T15:34:03.024Z,4.05
2022-08-28T15:36:30.351Z,4.65
2022-08-28T15:39:18.627Z,4.85
2022-08-28T15:41:47.128Z,4.22
2022-08-28T15:44:15.134Z,4.43
2022-08-28T15:46:49.446Z,4.28
2022-08-28T15:49:18.568Z,3.95
2022-08-28T15:51:45.821Z,4.55
2022-08-28T15:54:13.403Z,4.68
2022-08-28T15:56:41.791Z,4.55
2022-08-28T15:59:10.805Z,4.55
2022-08-28T16:01:38.821Z,4.43
2022-08-28T16:04:07.075Z,4.20
2022-08-28T16:06:35.675Z,4.18
2022-08-28T16:09:05.310Z,4.50
2022-08-28T16:11:33.931Z,3.17
2022-08-28T16:14:06.678Z,4.70
2022-08-28T16:16:34.645Z,5.03
2022-08-28T16:19:02.202Z,5.15
2022-08-28T16:21:29.764Z,5.95
2022-08-28T16:23:56.978Z,5.85
2022-08-28T16:26:24.619Z,5.97
2022-08-28T16:28:53.454Z,5.45
2022-08-28T16:31:21.385Z,5.95
2022-08-28T16:33:49.932Z,5.30
2022-08-28T16:36:18.583Z,5.88
2022-08-28T16:38:48.079Z,5.20
2022-08-28T16:41:23.752Z,5.78
2022-08-28T16:43:55.274Z,6.22
2022-08-28T16:46:26.882Z,5.70
2022-08-28T16:48:54.829Z,5.47
2022-08-28T16:51:22.732Z,5.28
2022-08-28T16:53:49.975Z,4.88
2022-08-28T16:56:18.237Z,5.25
2022-08-28T16:58:46.226Z,5.13
2022-08-28T17:01:14.418Z,4.97
2022-08-28T17:03:42.215Z,4.82
2022-08-28T17:06:20.286Z,4.68
2022-08-28T17:08:48.292Z,5.20
2022-08-28T17:11:16.889Z,5.47
2022-08-28T17:13:44.547Z,5.00
2022-08-28T17:16:13.248Z,4.65
2022-08-28T17:18:48.163Z,5.53
2022-08-28T17:21:38.853Z,7.18
2022-08-28T17:24:07.023Z,6.72
2022-08-28T17:26:34.378Z,5.15
2022-08-28T17:29:03.036Z,5.30
2022-08-28T17:31:30.391Z,5.20
2022-08-28T17:33:57.822Z,5.25
2022-08-28T17:36:33.282Z,9.52
2022-08-28T17:39:08.283Z,7.88
2022-08-28T17:41:35.823Z,7.88
2022-08-28T17:44:03.561Z,7.65
2022-08-28T17:46:36.750Z,7.53
2022-08-28T17:49:06.921Z,6.85
2022-08-28T17:51:43.314Z,8.02
2022-08-28T17:54:14.018Z,8.75
2022-08-28T17:56:42.675Z,8.10
2022-08-28T17:59:12.095Z,8.60
2022-08-28T18:01:39.801Z,8.00
2022-08-28T18:04:07.271Z,7.38
2022-08-28T18:06:34.928Z,8.10
2022-08-28T18:09:02.531Z,8.63
2022-08-28T18:11:29.865Z,7.88
2022-08-28T18:13:57.538Z,8.43
2022-08-28T18:16:30.395Z,8.10
2022-08-28T18:19:00.110Z,9.25
2022-08-28T18:21:31.845Z,8.30
2022-08-28T18:23:59.096Z,10.18
2022-08-28T18:26:26.519Z,7.03
2022-08-28T18:28:53.957Z,8.38
2022-08-28T18:31:21.126Z,7.78
2022-08-28T18:33:48.360Z,6.80
2022-08-28T18:36:16.852Z,10.50
2022-08-28T18:38:45.154Z,8.32
2022-08-28T18:41:12.544Z,8.60
2022-08-28T18:43:42.204Z,8.07
2022-08-28T18:46:10.360Z,8.48
2022-08-28T18:48:38.266Z,8.70
2022-08-28T18:51:07.918Z,8.57
2022-08-28T18:53:35.687Z,8.90
2022-08-28T18:56:03.896Z,9.20
2022-08-28T18:58:33.045Z,9.90
2022-08-28T19:01:02.355Z,10.20
2022-08-28T19:03:30.233Z,11.02
2022-08-28T19:05:59.014Z,10.65
2022-08-28T19:08:27.267Z,10.80
2022-08-28T19:10:54.681Z,10.73
2022-08-28T19:13:22.221Z,9.70
2022-08-28T19:15:53.326Z,9.27
2022-08-28T19:18:20.776Z,9.27
2022-08-28T19:20:48.428Z,9.55
2022-08-28T19:23:17.758Z,10.30
2022-08-28T19:25:46.200Z,9.73
2022-08-28T19:28:14.034Z,9.85
2022-08-28T19:30:42.295Z,10.95
2022-08-28T19:33:12.935Z,10.02
2022-08-28T19:35:41.107Z,11.18
2022-08-28T19:38:08.667Z,11.60
2022-08-28T19:40:36.140Z,10.98
2022-08-28T19:43:03.304Z,11.35
2022-08-28T19:45:33.232Z,11.23
2022-08-28T19:48:00.895Z,11.20
2022-08-28T19:50:28.122Z,12.25
2022-08-28T19:52:55.315Z,11.48
2022-08-28T19:55:26.190Z,11.60
2022-08-28T19:57:54.476Z,10.35
2022-08-28T20:00:26.015Z,11.07
2022-08-28T20:02:53.467Z,9.80
2022-08-28T20:05:22.038Z,9.13
2022-08-28T20:07:50.273Z,10.50
2022-08-28T20:10:18.336Z,11.02
2022-08-28T20:12:48.640Z,11.07
2022-08-28T20:15:19.438Z,12.50
2022-08-28T20:17:49.872Z,11.05
2022-08-28T20:20:20.078Z,12.00
2022-08-28T20:22:47.479Z,10.93
2022-08-28T20:25:18.207Z,11.35
2022-08-28T20:27:45.662Z,10.20
2022-08-28T20:30:13.285Z,11.32
2022-08-28T20:32:41.387Z,10.13
2022-08-28T20:35:12.039Z,9.88
2022-08-28T20:37:42.644Z,11.60
2022-08-28T20:40:14.806Z,11.03
2022-08-28T20:42:42.253Z,11.00
2022-08-28T20:45:10.239Z,10.98
2022-08-28T20:47:37.606Z,10.88
2022-08-28T20:50:05.695Z,11.10
2022-08-28T20:52:33.436Z,11.82
2022-08-28T20:55:00.738Z,10.63
2022-08-28T20:57:30.263Z,10.27
2022-08-28T20:59:58.753Z,10.77
2022-08-28T21:02:29.340Z,10.13
2022-08-28T21:04:56.845Z,10.05
2022-08-28T21:07:25.357Z,9.88
2022-08-28T21:10:05.589Z,9.57
2022-08-28T21:12:39.226Z,9.82
2022-08-28T21:15:10.073Z,9.75
2022-08-28T21:17:37.611Z,9.68
2022-08-28T21:20:10.185Z,10.13
2022-08-28T21:22:40.103Z,9.68
2022-08-28T21:25:10.603Z,9.52
2022-08-28T21:27:38.178Z,9.30
2022-08-28T21:30:07.851Z,9.30
2022-08-28T21:32:36.287Z,9.38
2022-08-28T21:35:05.363Z,9.75
2022-08-28T21:37:32.997Z,9.55
2022-08-28T21:40:01.025Z,9.73
2022-08-28T21:42:29.220Z,9.85
2022-08-28T21:44:56.352Z,9.82
2022-08-28T21:47:24.666Z,10.05
2022-08-28T21:49:54.445Z,10.35
2022-08-28T21:52:24.444Z,11.07
2022-08-28T21:55:08.248Z,10.13
2022-08-28T21:57:35.652Z,10.43
2022-08-28T22:00:05.991Z,10.32
2022-08-28T22:02:34.028Z,9.88
2022-08-28T22:05:01.330Z,10.48
2022-08-28T22:07:31.006Z,9.43
2022-08-28T22:09:58.353Z,10.52
2022-08-28T22:12:26.024Z,10.77
2022-08-28T22:14:54.383Z,11.00
2022-08-28T22:17:21.882Z,10.60
2022-08-28T22:19:49.273Z,11.27
2022-08-28T22:22:35.410Z,10.40
2022-08-28T22:25:03.499Z,9.40
2022-08-28T22:27:34.900Z,9.38
2022-08-28T22:30:02.282Z,8.70
2022-08-28T22:32:30.674Z,8.18
2022-08-28T22:34:58.013Z,8.45
2022-08-28T22:37:25.997Z,10.38
2022-08-28T22:39:53.580Z,8.90
2022-08-28T22:42:21.029Z,8.77
2022-08-28T22:44:48.255Z,10.88
2022-08-28T22:47:15.627Z,9.75
2022-08-28T22:49:46.158Z,8.80
2022-08-28T22:52:13.443Z,10.10
2022-08-28T22:54:40.647Z,10.75
2022-08-28T22:57:09.066Z,10.52
2022-08-28T22:59:36.336Z,11.20
2022-08-28T23:02:04.039Z,9.13
2022-08-28T23:04:31.695Z,10.38
2022-08-28T23:06:59.003Z,10.68
2022-08-28T23:09:26.548Z,10.50
2022-08-28T23:11:53.925Z,10.57
2022-08-28T23:14:21.219Z,11.55
2022-08-28T23:16:49.240Z,12.00
2022-08-28T23:19:19.826Z,11.57
2022-08-28T23:21:47.752Z,12.82
2022-08-28T23:24:16.728Z,11.40
2022-08-28T23:26:45.907Z,10.30
2022-08-28T23:29:14.018Z,11.50
2022-08-28T23:31:41.378Z,11.20
2022-08-28T23:34:08.883Z,12.52
2022-08-28T23:36:36.930Z,12.07
2022-08-28T23:39:07.127Z,10.45
2022-08-28T23:41:34.928Z,10.93
2022-08-28T23:44:08.282Z,10.43
2022-08-28T23:46:36.968Z,11.50
2022-08-28T23:49:09.998Z,11.57
2022-08-28T23:51:37.680Z,10.93
2022-08-28T23:54:05.230Z,11.10
2022-08-28T23:56:33.916Z,11.27
2022-08-28T23:59:01.303Z,11.80
